sensor_id;sensor_type;location;lat;lon;timestamp;P1;durP1;ratioP1;P2;durP2;ratioP2
32625;SDS011;19038;50.922;11.880;2022-10-20T00:00:05;8.40;;;5.77;;
32625;SDS011;19038;50.922;11.880;2022-10-20T00:05:04;6.40;;;5.80;;
32625;SDS011;19038;50.922;11.880;2022-10-20T00:10:05;6.30;;;5.77;;
32625;SDS011;19038;50.922;11.880;2022-10-20T00:15:05;7.33;;;5.80;;
32625;SDS011;19038;50.922;11.880;2022-10-20T00:20:05;6.63;;;6.03;;
32625;SDS011;19038;50.922;11.880;2022-10-20T00:25:05;9.03;;;6.27;;
32625;SDS011;19038;50.922;11.880;2022-10-20T00:30:05;6.13;;;5.53;;
32625;SDS011;19038;50.922;11.880;2022-10-20T00:35:05;6.70;;;6.00;;
32625;SDS011;19038;50.922;11.880;2022-10-20T00:40:05;6.70;;;6.10;;
32625;SDS011;19038;50.922;11.880;2022-10-20T00:45:10;6.47;;;5.87;;
32625;SDS011;19038;50.922;11.880;2022-10-20T00:55:06;6.97;;;5.90;;
32625;SDS011;19038;50.922;11.880;2022-10-20T01:00:05;6.53;;;5.93;;
32625;SDS011;19038;50.922;11.880;2022-10-20T01:05:05;7.00;;;6.30;;
32625;SDS011;19038;50.922;11.880;2022-10-20T01:10:05;7.13;;;6.00;;
32625;SDS011;19038;50.922;11.880;2022-10-20T01:15:12;5.97;;;5.37;;
32625;SDS011;19038;50.922;11.880;2022-10-20T01:20:12;6.00;;;5.47;;
32625;SDS011;19038;50.922;11.880;2022-10-20T01:30:07;6.90;;;6.20;;
32625;SDS011;19038;50.922;11.880;2022-10-20T01:40:08;6.80;;;6.10;;
32625;SDS011;19038;50.922;11.880;2022-10-20T01:45:05;6.40;;;5.80;;
32625;SDS011;19038;50.922;11.880;2022-10-20T01:50:05;7.43;;;6.00;;
32625;SDS011;19038;50.922;11.880;2022-10-20T01:55:10;6.83;;;6.10;;
32625;SDS011;19038;50.922;11.880;2022-10-20T02:00:06;7.20;;;6.43;;
32625;SDS011;19038;50.922;11.880;2022-10-20T02:05:11;9.50;;;6.47;;
32625;SDS011;19038;50.922;11.880;2022-10-20T02:15:05;6.67;;;6.07;;
32625;SDS011;19038;50.922;11.880;2022-10-20T02:20:05;6.73;;;6.10;;
32625;SDS011;19038;50.922;11.880;2022-10-20T02:25:05;6.37;;;5.77;;
32625;SDS011;19038;50.922;11.880;2022-10-20T02:30:08;7.53;;;6.50;;
32625;SDS011;19038;50.922;11.880;2022-10-20T02:35:06;6.53;;;5.93;;
32625;SDS011;19038;50.922;11.880;2022-10-20T02:40:05;9.80;;;6.13;;
32625;SDS011;19038;50.922;11.880;2022-10-20T02:45:05;7.93;;;6.23;;
32625;SDS011;19038;50.922;11.880;2022-10-20T02:50:05;6.97;;;6.20;;
32625;SDS011;19038;50.922;11.880;2022-10-20T02:55:05;6.90;;;6.20;;
32625;SDS011;19038;50.922;11.880;2022-10-20T03:00:05;7.37;;;6.57;;
32625;SDS011;19038;50.922;11.880;2022-10-20T03:05:05;6.70;;;5.80;;
32625;SDS011;19038;50.922;11.880;2022-10-20T03:10:05;6.30;;;5.70;;
32625;SDS011;19038;50.922;11.880;2022-10-20T03:15:05;7.50;;;6.57;;
32625;SDS011;19038;50.922;11.880;2022-10-20T03:20:06;6.40;;;5.80;;
32625;SDS011;19038;50.922;11.880;2022-10-20T03:25:05;7.10;;;6.10;;
32625;SDS011;19038;50.922;11.880;2022-10-20T03:30:05;6.13;;;5.57;;
32625;SDS011;19038;50.922;11.880;2022-10-20T03:35:05;7.23;;;6.33;;
32625;SDS011;19038;50.922;11.880;2022-10-20T03:40:05;7.00;;;6.30;;
32625;SDS011;19038;50.922;11.880;2022-10-20T03:45:05;6.57;;;5.90;;
32625;SDS011;19038;50.922;11.880;2022-10-20T03:50:05;6.43;;;5.83;;
32625;SDS011;19038;50.922;11.880;2022-10-20T03:55:05;8.43;;;6.70;;
32625;SDS011;19038;50.922;11.880;2022-10-20T04:00:05;8.70;;;6.47;;
32625;SDS011;19038;50.922;11.880;2022-10-20T04:05:05;9.07;;;6.70;;
32625;SDS011;19038;50.922;11.880;2022-10-20T04:10:06;8.00;;;7.10;;
32625;SDS011;19038;50.922;11.880;2022-10-20T04:15:05;7.97;;;7.07;;
32625;SDS011;19038;50.922;11.880;2022-10-20T04:20:05;9.10;;;7.33;;
32625;SDS011;19038;50.922;11.880;2022-10-20T04:25:06;9.60;;;7.43;;
32625;SDS011;19038;50.922;11.880;2022-10-20T04:30:05;8.23;;;7.43;;
32625;SDS011;19038;50.922;11.880;2022-10-20T04:35:05;10.40;;;8.77;;
32625;SDS011;19038;50.922;11.880;2022-10-20T04:40:05;21.60;;;15.60;;
32625;SDS011;19038;50.922;11.880;2022-10-20T04:45:05;17.73;;;15.83;;
32625;SDS011;19038;50.922;11.880;2022-10-20T04:50:05;12.20;;;10.97;;
32625;SDS011;19038;50.922;11.880;2022-10-20T04:55:05;12.57;;;11.47;;
32625;SDS011;19038;50.922;11.880;2022-10-20T05:00:06;13.33;;;9.70;;
32625;SDS011;19038;50.922;11.880;2022-10-20T05:05:06;10.93;;;9.83;;
32625;SDS011;19038;50.922;11.880;2022-10-20T05:10:06;10.40;;;8.30;;
32625;SDS011;19038;50.922;11.880;2022-10-20T05:15:06;9.13;;;8.23;;
32625;SDS011;19038;50.922;11.880;2022-10-20T05:20:06;7.73;;;6.93;;
32625;SDS011;19038;50.922;11.880;2022-10-20T05:25:06;7.73;;;7.00;;
32625;SDS011;19038;50.922;11.880;2022-10-20T05:30:06;7.70;;;6.90;;
32625;SDS011;19038;50.922;11.880;2022-10-20T05:35:06;11.83;;;9.50;;
32625;SDS011;19038;50.922;11.880;2022-10-20T05:40:06;10.90;;;8.93;;
32625;SDS011;19038;50.922;11.880;2022-10-20T05:45:06;11.90;;;8.80;;
32625;SDS011;19038;50.922;11.880;2022-10-20T05:50:06;9.47;;;8.37;;
32625;SDS011;19038;50.922;11.880;2022-10-20T05:55:06;9.73;;;8.83;;
32625;SDS011;19038;50.922;11.880;2022-10-20T06:00:06;11.40;;;8.50;;
32625;SDS011;19038;50.922;11.880;2022-10-20T06:05:06;9.70;;;8.70;;
32625;SDS011;19038;50.922;11.880;2022-10-20T06:10:06;12.50;;;8.73;;
32625;SDS011;19038;50.922;11.880;2022-10-20T06:15:06;11.20;;;8.87;;
32625;SDS011;19038;50.922;11.880;2022-10-20T06:20:06;9.60;;;7.83;;
32625;SDS011;19038;50.922;11.880;2022-10-20T06:25:06;9.17;;;7.43;;
32625;SDS011;19038;50.922;11.880;2022-10-20T06:30:06;10.17;;;8.17;;
32625;SDS011;19038;50.922;11.880;2022-10-20T06:35:06;12.30;;;8.57;;
32625;SDS011;19038;50.922;11.880;2022-10-20T06:40:06;9.10;;;7.60;;
32625;SDS011;19038;50.922;11.880;2022-10-20T06:45:06;8.70;;;7.80;;
32625;SDS011;19038;50.922;11.880;2022-10-20T06:50:06;8.23;;;7.43;;
32625;SDS011;19038;50.922;11.880;2022-10-20T06:55:06;11.60;;;8.10;;
32625;SDS011;19038;50.922;11.880;2022-10-20T07:00:06;9.30;;;8.30;;
32625;SDS011;19038;50.922;11.880;2022-10-20T07:05:06;9.47;;;7.63;;
32625;SDS011;19038;50.922;11.880;2022-10-20T07:10:06;10.07;;;7.60;;
32625;SDS011;19038;50.922;11.880;2022-10-20T07:15:06;7.43;;;6.67;;
32625;SDS011;19038;50.922;11.880;2022-10-20T07:20:06;9.60;;;8.10;;
32625;SDS011;19038;50.922;11.880;2022-10-20T07:25:06;9.50;;;8.60;;
32625;SDS011;19038;50.922;11.880;2022-10-20T07:30:06;9.60;;;8.53;;
32625;SDS011;19038;50.922;11.880;2022-10-20T07:35:06;9.50;;;7.33;;
32625;SDS011;19038;50.922;11.880;2022-10-20T07:40:06;8.00;;;7.30;;
32625;SDS011;19038;50.922;11.880;2022-10-20T07:45:06;7.63;;;6.90;;
32625;SDS011;19038;50.922;11.880;2022-10-20T07:50:06;8.33;;;7.10;;
32625;SDS011;19038;50.922;11.880;2022-10-20T07:55:06;8.47;;;7.67;;
32625;SDS011;19038;50.922;11.880;2022-10-20T08:00:06;8.23;;;7.43;;
32625;SDS011;19038;50.922;11.880;2022-10-20T08:05:06;7.53;;;6.43;;
32625;SDS011;19038;50.922;11.880;2022-10-20T08:10:06;6.83;;;6.23;;
32625;SDS011;19038;50.922;11.880;2022-10-20T08:15:06;7.30;;;6.70;;
32625;SDS011;19038;50.922;11.880;2022-10-20T08:20:06;9.43;;;6.47;;
32625;SDS011;19038;50.922;11.880;2022-10-20T08:25:06;7.50;;;6.80;;
32625;SDS011;19038;50.922;11.880;2022-10-20T08:30:06;8.60;;;6.40;;
32625;SDS011;19038;50.922;11.880;2022-10-20T08:35:06;8.80;;;6.93;;
32625;SDS011;19038;50.922;11.880;2022-10-20T08:40:06;7.20;;;6.50;;
32625;SDS011;19038;50.922;11.880;2022-10-20T08:45:06;7.73;;;6.47;;
32625;SDS011;19038;50.922;11.880;2022-10-20T08:50:06;6.47;;;5.97;;
32625;SDS011;19038;50.922;11.880;2022-10-20T08:55:06;9.53;;;7.50;;
32625;SDS011;19038;50.922;11.880;2022-10-20T09:00:13;7.13;;;6.20;;
32625;SDS011;19038;50.922;11.880;2022-10-20T09:05:06;7.27;;;6.57;;
32625;SDS011;19038;50.922;11.880;2022-10-20T09:10:10;6.30;;;5.70;;
32625;SDS011;19038;50.922;11.880;2022-10-20T09:15:08;6.00;;;5.50;;
32625;SDS011;19038;50.922;11.880;2022-10-20T09:20:07;7.93;;;7.10;;
32625;SDS011;19038;50.922;11.880;2022-10-20T09:25:06;6.43;;;5.47;;
32625;SDS011;19038;50.922;11.880;2022-10-20T09:40:11;5.83;;;5.33;;
32625;SDS011;19038;50.922;11.880;2022-10-20T09:45:11;5.87;;;5.30;;
32625;SDS011;19038;50.922;11.880;2022-10-20T09:50:06;6.20;;;5.70;;
32625;SDS011;19038;50.922;11.880;2022-10-20T09:55:15;6.00;;;5.40;;
32625;SDS011;19038;50.922;11.880;2022-10-20T10:00:06;6.73;;;6.13;;
32625;SDS011;19038;50.922;11.880;2022-10-20T10:10:10;7.23;;;5.90;;
32625;SDS011;19038;50.922;11.880;2022-10-20T10:15:10;6.80;;;6.17;;
32625;SDS011;19038;50.922;11.880;2022-10-20T10:25:06;5.73;;;5.33;;
32625;SDS011;19038;50.922;11.880;2022-10-20T10:40:10;8.13;;;5.57;;
32625;SDS011;19038;50.922;11.880;2022-10-20T10:45:10;5.83;;;5.23;;
32625;SDS011;19038;50.922;11.880;2022-10-20T11:00:09;5.87;;;5.37;;
32625;SDS011;19038;50.922;11.880;2022-10-20T11:20:09;4.90;;;4.53;;
32625;SDS011;19038;50.922;11.880;2022-10-20T11:25:13;4.23;;;3.93;;
32625;SDS011;19038;50.922;11.880;2022-10-20T11:30:15;5.13;;;3.90;;
32625;SDS011;19038;50.922;11.880;2022-10-20T11:50:06;6.43;;;3.07;;
32625;SDS011;19038;50.922;11.880;2022-10-20T12:00:12;2.70;;;2.50;;
32625;SDS011;19038;50.922;11.880;2022-10-20T12:05:14;3.33;;;2.20;;
32625;SDS011;19038;50.922;11.880;2022-10-20T12:25:14;2.97;;;2.60;;
32625;SDS011;19038;50.922;11.880;2022-10-20T12:45:07;2.70;;;2.50;;
32625;SDS011;19038;50.922;11.880;2022-10-20T12:50:07;4.27;;;3.10;;
32625;SDS011;19038;50.922;11.880;2022-10-20T12:55:07;3.50;;;3.00;;
32625;SDS011;19038;50.922;11.880;2022-10-20T13:05:23;3.33;;;3.03;;
32625;SDS011;19038;50.922;11.880;2022-10-20T13:15:09;4.50;;;3.27;;
32625;SDS011;19038;50.922;11.880;2022-10-20T13:20:15;3.60;;;3.00;;
32625;SDS011;19038;50.922;11.880;2022-10-20T13:30:07;3.37;;;3.10;;
32625;SDS011;19038;50.922;11.880;2022-10-20T13:35:09;3.53;;;3.27;;
32625;SDS011;19038;50.922;11.880;2022-10-20T13:40:11;4.60;;;2.80;;
32625;SDS011;19038;50.922;11.880;2022-10-20T13:50:09;5.00;;;4.60;;
32625;SDS011;19038;50.922;11.880;2022-10-20T13:55:06;4.40;;;4.00;;
32625;SDS011;19038;50.922;11.880;2022-10-20T14:05:10;3.03;;;2.70;;
32625;SDS011;19038;50.922;11.880;2022-10-20T14:10:18;3.50;;;3.20;;
32625;SDS011;19038;50.922;11.880;2022-10-20T14:15:07;3.03;;;2.77;;
32625;SDS011;19038;50.922;11.880;2022-10-20T14:20:08;2.93;;;2.67;;
32625;SDS011;19038;50.922;11.880;2022-10-20T14:25:07;3.00;;;2.80;;
32625;SDS011;19038;50.922;11.880;2022-10-20T14:30:06;3.80;;;3.30;;
32625;SDS011;19038;50.922;11.880;2022-10-20T14:40:07;15.57;;;11.80;;
32625;SDS011;19038;50.922;11.880;2022-10-20T14:45:15;13.70;;;12.50;;
32625;SDS011;19038;50.922;11.880;2022-10-20T14:50:06;15.90;;;14.27;;
32625;SDS011;19038;50.922;11.880;2022-10-20T15:10:08;19.10;;;15.93;;
32625;SDS011;19038;50.922;11.880;2022-10-20T15:15:16;33.00;;;22.53;;
32625;SDS011;19038;50.922;11.880;2022-10-20T15:25:07;23.23;;;18.73;;
32625;SDS011;19038;50.922;11.880;2022-10-20T15:35:10;8.97;;;8.07;;
32625;SDS011;19038;50.922;11.880;2022-10-20T15:40:07;10.17;;;9.00;;
32625;SDS011;19038;50.922;11.880;2022-10-20T15:45:11;8.17;;;7.37;;
32625;SDS011;19038;50.922;11.880;2022-10-20T15:50:07;10.23;;;8.50;;
32625;SDS011;19038;50.922;11.880;2022-10-20T15:55:15;10.70;;;6.33;;
32625;SDS011;19038;50.922;11.880;2022-10-20T16:00:07;7.43;;;6.70;;
32625;SDS011;19038;50.922;11.880;2022-10-20T16:05:07;26.23;;;8.60;;
32625;SDS011;19038;50.922;11.880;2022-10-20T16:10:07;9.53;;;8.37;;
32625;SDS011;19038;50.922;11.880;2022-10-20T16:15:07;6.90;;;6.20;;
32625;SDS011;19038;50.922;11.880;2022-10-20T16:20:07;6.67;;;6.07;;
32625;SDS011;19038;50.922;11.880;2022-10-20T16:25:07;8.47;;;7.57;;
32625;SDS011;19038;50.922;11.880;2022-10-20T16:30:07;7.47;;;6.77;;
32625;SDS011;19038;50.922;11.880;2022-10-20T16:35:07;7.00;;;6.30;;
32625;SDS011;19038;50.922;11.880;2022-10-20T16:40:07;9.40;;;8.40;;
32625;SDS011;19038;50.922;11.880;2022-10-20T16:45:07;9.80;;;8.80;;
32625;SDS011;19038;50.922;11.880;2022-10-20T16:50:07;8.63;;;7.83;;
32625;SDS011;19038;50.922;11.880;2022-10-20T16:55:07;8.70;;;7.13;;
32625;SDS011;19038;50.922;11.880;2022-10-20T17:00:07;8.27;;;7.57;;
32625;SDS011;19038;50.922;11.880;2022-10-20T17:05:07;8.60;;;7.53;;
32625;SDS011;19038;50.922;11.880;2022-10-20T17:10:07;7.63;;;6.87;;
32625;SDS011;19038;50.922;11.880;2022-10-20T17:15:07;11.20;;;10.13;;
32625;SDS011;19038;50.922;11.880;2022-10-20T17:20:07;8.60;;;7.30;;
32625;SDS011;19038;50.922;11.880;2022-10-20T17:25:07;9.53;;;8.63;;
32625;SDS011;19038;50.922;11.880;2022-10-20T17:30:07;8.07;;;7.30;;
32625;SDS011;19038;50.922;11.880;2022-10-20T17:35:07;9.73;;;8.17;;
32625;SDS011;19038;50.922;11.880;2022-10-20T17:40:07;8.73;;;8.00;;
32625;SDS011;19038;50.922;11.880;2022-10-20T17:45:07;8.93;;;8.13;;
32625;SDS011;19038;50.922;11.880;2022-10-20T17:50:07;18.20;;;16.07;;
32625;SDS011;19038;50.922;11.880;2022-10-20T17:55:07;20.63;;;18.43;;
32625;SDS011;19038;50.922;11.880;2022-10-20T18:00:07;20.33;;;18.33;;
32625;SDS011;19038;50.922;11.880;2022-10-20T18:05:07;8.70;;;7.90;;
32625;SDS011;19038;50.922;11.880;2022-10-20T18:10:07;8.20;;;6.40;;
32625;SDS011;19038;50.922;11.880;2022-10-20T18:15:07;8.37;;;6.40;;
32625;SDS011;19038;50.922;11.880;2022-10-20T18:20:07;7.20;;;6.60;;
32625;SDS011;19038;50.922;11.880;2022-10-20T18:25:07;7.77;;;6.60;;
32625;SDS011;19038;50.922;11.880;2022-10-20T18:30:07;6.40;;;5.80;;
32625;SDS011;19038;50.922;11.880;2022-10-20T18:35:07;7.43;;;6.60;;
32625;SDS011;19038;50.922;11.880;2022-10-20T18:40:07;7.07;;;6.37;;
32625;SDS011;19038;50.922;11.880;2022-10-20T18:45:07;6.90;;;6.40;;
32625;SDS011;19038;50.922;11.880;2022-10-20T18:50:07;8.97;;;8.07;;
32625;SDS011;19038;50.922;11.880;2022-10-20T18:55:07;16.00;;;13.67;;
32625;SDS011;19038;50.922;11.880;2022-10-20T19:00:07;16.27;;;14.57;;
32625;SDS011;19038;50.922;11.880;2022-10-20T19:05:07;11.30;;;8.93;;
32625;SDS011;19038;50.922;11.880;2022-10-20T19:10:07;21.03;;;18.10;;
32625;SDS011;19038;50.922;11.880;2022-10-20T19:15:07;15.37;;;13.67;;
32625;SDS011;19038;50.922;11.880;2022-10-20T19:20:07;12.80;;;11.50;;
32625;SDS011;19038;50.922;11.880;2022-10-20T19:25:07;37.13;;;25.13;;
32625;SDS011;19038;50.922;11.880;2022-10-20T19:30:07;51.67;;;36.07;;
32625;SDS011;19038;50.922;11.880;2022-10-20T19:35:07;82.37;;;63.10;;
32625;SDS011;19038;50.922;11.880;2022-10-20T19:40:07;19.73;;;17.80;;
32625;SDS011;19038;50.922;11.880;2022-10-20T19:45:07;10.90;;;9.90;;
32625;SDS011;19038;50.922;11.880;2022-10-20T19:50:07;9.00;;;8.20;;
32625;SDS011;19038;50.922;11.880;2022-10-20T19:55:07;8.27;;;7.50;;
32625;SDS011;19038;50.922;11.880;2022-10-20T20:00:09;7.80;;;7.10;;
32625;SDS011;19038;50.922;11.880;2022-10-20T20:05:09;15.40;;;13.80;;
32625;SDS011;19038;50.922;11.880;2022-10-20T20:10:09;11.70;;;9.70;;
32625;SDS011;19038;50.922;11.880;2022-10-20T20:15:09;16.37;;;14.77;;
32625;SDS011;19038;50.922;11.880;2022-10-20T20:20:09;9.23;;;7.90;;
32625;SDS011;19038;50.922;11.880;2022-10-20T20:25:09;8.70;;;7.33;;
32625;SDS011;19038;50.922;11.880;2022-10-20T20:30:09;20.43;;;18.73;;
32625;SDS011;19038;50.922;11.880;2022-10-20T20:35:09;9.47;;;7.83;;
32625;SDS011;19038;50.922;11.880;2022-10-20T20:40:09;13.23;;;12.03;;
32625;SDS011;19038;50.922;11.880;2022-10-20T20:45:09;14.00;;;10.33;;
32625;SDS011;19038;50.922;11.880;2022-10-20T20:50:09;12.07;;;11.07;;
32625;SDS011;19038;50.922;11.880;2022-10-20T20:55:09;7.97;;;7.27;;
32625;SDS011;19038;50.922;11.880;2022-10-20T21:00:09;9.00;;;8.10;;
32625;SDS011;19038;50.922;11.880;2022-10-20T21:05:09;8.27;;;7.43;;
32625;SDS011;19038;50.922;11.880;2022-10-20T21:10:09;7.90;;;7.10;;
32625;SDS011;19038;50.922;11.880;2022-10-20T21:15:09;7.87;;;7.17;;
32625;SDS011;19038;50.922;11.880;2022-10-20T21:20:09;8.07;;;7.27;;
32625;SDS011;19038;50.922;11.880;2022-10-20T21:25:09;7.20;;;6.20;;
32625;SDS011;19038;50.922;11.880;2022-10-20T21:30:09;9.10;;;8.20;;
32625;SDS011;19038;50.922;11.880;2022-10-20T21:35:09;8.30;;;7.40;;
32625;SDS011;19038;50.922;11.880;2022-10-20T21:40:09;7.00;;;6.40;;
32625;SDS011;19038;50.922;11.880;2022-10-20T21:45:09;8.03;;;7.23;;
32625;SDS011;19038;50.922;11.880;2022-10-20T21:50:09;8.27;;;7.47;;
32625;SDS011;19038;50.922;11.880;2022-10-20T21:55:09;9.50;;;7.73;;
32625;SDS011;19038;50.922;11.880;2022-10-20T22:00:09;8.27;;;7.57;;
32625;SDS011;19038;50.922;11.880;2022-10-20T22:05:09;9.30;;;7.93;;
32625;SDS011;19038;50.922;11.880;2022-10-20T22:10:09;7.60;;;6.90;;
32625;SDS011;19038;50.922;11.880;2022-10-20T22:15:09;7.27;;;6.53;;
32625;SDS011;19038;50.922;11.880;2022-10-20T22:20:09;6.90;;;6.30;;
32625;SDS011;19038;50.922;11.880;2022-10-20T22:25:09;7.83;;;7.13;;
32625;SDS011;19038;50.922;11.880;2022-10-20T22:30:09;9.77;;;8.60;;
32625;SDS011;19038;50.922;11.880;2022-10-20T22:35:09;14.37;;;11.17;;
32625;SDS011;19038;50.922;11.880;2022-10-20T22:40:09;11.13;;;10.03;;
32625;SDS011;19038;50.922;11.880;2022-10-20T22:45:09;9.50;;;8.60;;
32625;SDS011;19038;50.922;11.880;2022-10-20T22:50:09;7.93;;;7.13;;
32625;SDS011;19038;50.922;11.880;2022-10-20T22:55:09;8.97;;;8.17;;
32625;SDS011;19038;50.922;11.880;2022-10-20T23:00:09;7.80;;;7.13;;
32625;SDS011;19038;50.922;11.880;2022-10-20T23:05:09;9.87;;;8.83;;
32625;SDS011;19038;50.922;11.880;2022-10-20T23:10:09;9.57;;;8.63;;
32625;SDS011;19038;50.922;11.880;2022-10-20T23:15:09;9.83;;;8.23;;
32625;SDS011;19038;50.922;11.880;2022-10-20T23:20:09;8.40;;;7.50;;
32625;SDS011;19038;50.922;11.880;2022-10-20T23:25:09;8.33;;;7.43;;
32625;SDS011;19038;50.922;11.880;2022-10-20T23:30:09;10.30;;;8.97;;
32625;SDS011;19038;50.922;11.880;2022-10-20T23:35:09;8.77;;;7.80;;
32625;SDS011;19038;50.922;11.880;2022-10-20T23:40:09;8.73;;;7.90;;
32625;SDS011;19038;50.922;11.880;2022-10-20T23:45:09;8.00;;;7.30;;
32625;SDS011;19038;50.922;11.880;2022-10-20T23:50:09;8.57;;;7.70;;
32625;SDS011;19038;50.922;11.880;2022-10-20T23:55:09;6.97;;;6.37;;
